Time;durP1;ratioP1;P1;durP2;ratioP2;P2;SDS_P1;SDS_P2;PMS_P1;PMS_P2;Temp;Humidity;BMP_temperature;BMP_pressure;BME280_temperature;BME280_humidity;BME280_pressure;Samples;Min_cycle;Max_cycle;Signal;HPM_P1;HPM_P2
2022/10/23 00:01:44;;;;;;;10.10;2.78;;;12.80;99.90;;;-144.05;83.11;125687.94;4994109;28;20030;-80
2022/10/23 00:04:24;;;;;;;11.25;3.58;;;12.90;99.90;;;-144.05;83.29;125687.94;4996380;28;20065;-81
2022/10/23 00:06:50;;;;;;;8.35;3.38;;;12.90;99.90;;;-144.05;82.85;125687.94;4977431;28;20030;-80
2022/10/23 00:09:23;;;;;;;10.57;3.17;;;12.90;99.90;;;-144.05;83.11;125687.94;4974864;28;20128;-78
2022/10/23 00:11:50;;;;;;;11.98;4.10;;;12.90;99.90;;;-144.05;82.92;125687.94;4974878;28;20030;-79
2022/10/23 00:14:22;;;;;;;12.88;4.05;;;12.90;99.90;;;-144.05;83.18;125687.94;4992437;28;20054;-79
2022/10/23 00:16:49;;;;;;;10.63;3.97;;;12.90;99.90;;;-144.05;83.34;125687.94;4992251;28;20037;-78
2022/10/23 00:19:15;;;;;;;10.25;3.63;;;12.90;99.90;;;-144.05;82.80;125687.94;4974768;28;20038;-79
2022/10/23 00:21:41;;;;;;;8.75;3.40;;;12.90;99.90;;;-144.05;82.73;125687.94;4992409;28;20026;-78
2022/10/23 00:24:08;;;;;;;14.18;4.35;;;12.80;99.90;;;-144.05;82.82;125687.94;4992759;28;20060;-79
2022/10/23 00:26:34;;;;;;;18.45;4.20;;;12.80;99.90;;;-144.05;83.04;125687.94;4992680;28;20026;-79
2022/10/23 00:29:00;;;;;;;8.88;3.72;;;12.80;99.90;;;-144.05;82.86;125687.94;4992579;28;20520;-80
2022/10/23 00:31:25;;;;;;;9.48;4.03;;;12.70;99.90;;;-144.05;82.78;125687.94;4992644;28;20113;-78
2022/10/23 00:33:52;;;;;;;9.45;4.90;;;12.70;99.90;;;-144.05;82.54;125687.94;4976626;28;20030;-78
2022/10/23 00:36:20;;;;;;;20.33;10.45;;;12.60;99.90;;;-144.05;81.70;125687.94;4996339;28;20022;-78
2022/10/23 00:38:47;;;;;;;13.27;7.35;;;12.40;99.90;;;-144.05;81.39;125687.94;4996210;28;20026;-79
2022/10/23 00:41:27;;;;;;;14.27;7.75;;;12.10;99.90;;;-144.05;81.52;125687.94;4996377;28;20453;-80
2022/10/23 00:44:30;;;;;;;17.92;9.07;;;12.00;99.90;;;-144.05;81.51;125687.94;4996235;28;20038;-78
2022/10/23 00:46:58;;;;;;;20.15;10.52;;;11.70;99.90;;;-144.05;81.74;125687.94;4996119;28;20519;-78
2022/10/23 00:49:24;;;;;;;17.60;8.55;;;11.50;99.90;;;-144.05;82.81;125687.94;4996400;28;20030;-78
2022/10/23 00:52:03;;;;;;;9.75;5.90;;;11.40;99.90;;;-144.05;83.31;125687.94;4996689;28;20018;-80
2022/10/23 00:54:38;;;;;;;10.98;4.78;;;11.40;99.90;;;-144.05;83.30;125687.94;4996944;28;20084;-80
2022/10/23 00:57:12;;;;;;;13.30;4.65;;;11.40;99.90;;;-144.05;84.22;125687.94;4996832;28;20057;-78
2022/10/23 00:59:39;;;;;;;6.85;4.40;;;11.40;99.90;;;-144.05;83.29;125687.94;4996830;28;20038;-79
2022/10/23 01:02:05;;;;;;;11.35;5.03;;;11.30;99.90;;;-144.05;83.31;125687.94;4996850;28;20026;-78
2022/10/23 01:04:33;;;;;;;11.43;4.63;;;11.20;99.90;;;-144.05;83.94;125687.94;4979161;28;20113;-80
2022/10/23 01:07:23;;;;;;;14.07;4.38;;;11.20;99.90;;;-144.05;85.79;125687.94;4995543;28;20401;-78
2022/10/23 01:10:18;;;;;;;12.75;4.25;;;11.20;99.90;;;-144.05;87.32;125687.94;4977524;28;20057;-78
2022/10/23 01:13:14;;;;;;;14.13;4.93;;;11.40;99.90;;;-144.05;87.27;125687.94;4977787;28;20037;-81
2022/10/23 01:16:06;;;;;;;11.30;4.72;;;11.50;99.90;;;-144.05;87.15;125687.94;4977833;28;20030;-78
2022/10/23 01:18:48;;;;;;;9.95;4.05;;;11.70;99.90;;;-144.05;87.34;125687.94;4995544;28;20027;-80
2022/10/23 01:22:04;;;;;;;15.20;4.78;;;11.90;99.90;;;-144.05;87.22;125687.94;4995655;28;20034;-80
2022/10/23 01:24:55;;;;;;;13.48;4.47;;;12.00;99.90;;;-144.05;86.87;125687.94;4978204;28;20026;-79
2022/10/23 01:27:31;;;;;;;12.55;4.20;;;12.10;99.90;;;-144.05;86.49;125687.94;4995563;28;20097;-78
2022/10/23 01:30:14;;;;;;;16.88;4.47;;;12.10;99.90;;;-144.05;87.00;125687.94;4977877;28;20061;-79
2022/10/23 01:33:11;;;;;;;11.52;3.90;;;12.20;99.90;;;-144.05;86.50;125687.94;4995543;28;20659;-79
2022/10/23 01:35:59;;;;;;;12.90;4.38;;;12.40;99.90;;;-144.05;86.49;125687.94;4992856;28;20397;-79
2022/10/23 01:38:38;;;;;;;10.82;3.60;;;12.40;99.90;;;-144.05;86.19;125687.94;4978638;28;20073;-80
2022/10/23 01:41:16;;;;;;;11.48;3.97;;;12.50;99.90;;;-144.05;86.12;125687.94;4998419;28;20140;-81
2022/10/23 01:44:15;;;;;;;11.20;4.22;;;12.70;99.90;;;-144.05;85.01;125687.94;4998209;28;20037;-79
2022/10/23 01:46:47;;;;;;;10.93;3.03;;;12.80;99.90;;;-144.05;84.77;125687.94;5025238;22;20054;-78
2022/10/23 01:49:16;;;;;;;10.10;3.47;;;12.90;99.90;;;-144.05;84.61;125687.94;5000409;28;20044;-79
2022/10/23 01:51:51;;;;;;;13.90;3.47;;;12.90;99.90;;;-144.05;84.16;125687.94;5018336;28;20037;-78
2022/10/23 01:54:30;;;;;;;16.70;2.90;;;13.00;99.90;;;-144.05;84.18;125687.94;5018222;28;20400;-77
2022/10/23 01:56:59;;;;;;;9.85;3.72;;;13.00;99.90;;;-144.05;83.93;125687.94;5018500;28;20432;-80
2022/10/23 01:59:37;;;;;;;10.68;3.33;;;13.00;99.90;;;-144.05;83.97;125687.94;5016891;28;20190;-79
2022/10/23 02:02:06;;;;;;;14.57;3.40;;;13.00;99.90;;;-144.05;83.96;125687.94;5016990;28;20041;-80
2022/10/23 02:04:48;;;;;;;14.25;3.88;;;13.00;99.90;;;-144.05;83.64;125687.94;5015167;28;20041;-78
2022/10/23 02:07:14;;;;;;;6.82;3.47;;;13.00;99.90;;;-144.05;83.45;125687.94;5016398;28;20050;-79
2022/10/23 02:09:40;;;;;;;10.45;2.92;;;12.90;99.90;;;-144.05;83.89;125687.94;5016200;28;20034;-77
2022/10/23 02:12:12;;;;;;;9.60;2.70;;;12.90;99.90;;;-144.05;84.22;125687.94;5016071;28;20108;-79
2022/10/23 02:14:52;;;;;;;7.35;3.00;;;12.90;99.90;;;-144.05;84.21;125687.94;5015759;28;20054;-77
2022/10/23 02:17:58;;;;;;;8.98;3.30;;;12.90;99.90;;;-144.05;84.06;125687.94;5015971;28;20026;-78
2022/10/23 02:20:52;;;;;;;9.90;2.75;;;12.90;99.90;;;-144.05;83.92;125687.94;5016012;28;20441;-79
2022/10/23 02:23:55;;;;;;;7.05;2.85;;;12.90;99.90;;;-144.05;83.91;125687.94;5014578;28;20042;-78
2022/10/23 02:26:37;;;;;;;12.93;2.67;;;12.90;99.90;;;-144.05;84.01;125687.94;5014311;28;20029;-78
2022/10/23 02:29:26;;;;;;;10.10;2.97;;;13.00;99.90;;;-144.05;83.94;125687.94;5014685;28;20041;-80
2022/10/23 02:31:52;;;;;;;8.55;3.10;;;13.00;99.90;;;-144.05;83.88;125687.94;5015038;28;20034;-76
2022/10/23 02:34:19;;;;;;;8.63;2.90;;;13.00;99.90;;;-144.05;83.63;125687.94;5014815;28;20392;-79
2022/10/23 02:36:45;;;;;;;9.32;3.22;;;13.00;99.90;;;-144.05;83.56;125687.94;4997106;28;20034;-76
2022/10/23 02:39:11;;;;;;;7.82;2.70;;;12.90;99.90;;;-144.05;83.90;125687.94;4997092;28;20396;-78
2022/10/23 02:42:19;;;;;;;8.38;3.20;;;12.90;99.90;;;-144.05;84.11;125687.94;5014898;28;20022;-76
2022/10/23 02:45:16;;;;;;;6.07;2.55;;;12.90;99.90;;;-144.05;84.00;125687.94;5013645;28;20034;-77
2022/10/23 02:48:20;;;;;;;8.00;2.60;;;13.00;99.90;;;-144.05;83.88;125687.94;5014232;28;20034;-78
2022/10/23 02:51:16;;;;;;;16.02;3.17;;;13.00;99.90;;;-144.05;83.36;125687.94;5017791;28;20030;-79
2022/10/23 02:54:12;;;;;;;8.07;3.00;;;13.00;99.90;;;-144.05;83.64;125687.94;5021983;28;20040;-81
2022/10/23 02:57:02;;;;;;;5.20;2.55;;;13.00;99.90;;;-144.05;83.72;125687.94;5020437;28;20030;-79
2022/10/23 02:59:52;;;;;;;7.20;3.28;;;13.00;99.90;;;-144.05;83.83;125687.94;5017886;28;20088;-79
2022/10/23 03:02:34;;;;;;;12.40;3.28;;;13.10;99.90;;;-144.05;83.38;125687.94;5019411;28;20091;-80
2022/10/23 03:05:04;;;;;;;11.80;2.40;;;13.10;99.90;;;-144.05;83.69;125687.94;5018559;28;20097;-78
2022/10/23 03:07:30;;;;;;;9.93;2.78;;;13.10;99.90;;;-144.05;83.52;125687.94;5000267;28;20068;-79
2022/10/23 03:09:56;;;;;;;7.78;3.10;;;13.10;99.90;;;-144.05;83.48;125687.94;5000067;28;20037;-77
2022/10/23 03:12:21;;;;;;;11.23;3.03;;;13.10;99.90;;;-144.05;83.64;125687.94;5017718;28;20026;-79
2022/10/23 03:14:47;;;;;;;9.30;2.67;;;13.10;99.90;;;-144.05;83.36;125687.94;5015893;28;20465;-78
2022/10/23 03:17:13;;;;;;;8.07;2.67;;;13.10;99.90;;;-144.05;83.64;125687.94;5017098;28;20038;-79
2022/10/23 03:19:39;;;;;;;5.68;2.90;;;13.00;99.90;;;-144.05;83.56;125687.94;5016193;28;20022;-77
2022/10/23 03:22:05;;;;;;;6.50;2.47;;;13.00;99.90;;;-144.05;83.33;125687.94;5014422;28;20029;-80
2022/10/23 03:24:30;;;;;;;6.03;2.65;;;13.00;99.90;;;-144.05;83.18;125687.94;5013843;28;20073;-77
2022/10/23 03:26:56;;;;;;;10.70;2.85;;;13.00;99.90;;;-144.05;83.84;125687.94;5013798;28;20029;-79
2022/10/23 03:29:22;;;;;;;6.05;2.42;;;12.90;99.90;;;-144.05;83.41;125687.94;5013187;28;20117;-79
2022/10/23 03:31:48;;;;;;;7.10;2.33;;;12.80;99.90;;;-144.05;83.43;125687.94;5015153;28;20022;-80
2022/10/23 03:34:13;;;;;;;9.70;2.35;;;12.80;99.90;;;-144.05;83.33;125687.94;5013045;28;20381;-79
2022/10/23 03:36:40;;;;;;;9.43;2.50;;;12.70;99.90;;;-144.05;83.61;125687.94;5012671;28;20374;-78
2022/10/23 03:39:06;;;;;;;7.13;2.10;;;12.70;99.90;;;-144.05;83.46;125687.94;5013673;28;20044;-79
2022/10/23 03:41:32;;;;;;;9.70;2.60;;;12.60;99.90;;;-144.05;83.39;125687.94;5013789;28;20392;-78
2022/10/23 03:43:57;;;;;;;8.85;2.47;;;12.50;99.90;;;-144.05;83.63;125687.94;5013711;28;20366;-77
2022/10/23 03:46:23;;;;;;;8.10;2.90;;;12.50;99.90;;;-144.05;84.08;125687.94;5013416;28;20034;-77
2022/10/23 03:48:49;;;;;;;10.45;3.25;;;12.50;99.90;;;-144.05;84.02;125687.94;5011938;28;20030;-77
2022/10/23 03:51:15;;;;;;;6.78;2.30;;;12.40;99.90;;;-144.05;84.35;125687.94;5013310;28;20072;-78
2022/10/23 03:53:41;;;;;;;7.32;2.38;;;12.50;99.90;;;-144.05;84.13;125687.94;5013079;28;20025;-79
2022/10/23 03:56:07;;;;;;;9.57;2.70;;;12.50;99.90;;;-144.05;84.22;125687.94;5012915;28;20361;-76
2022/10/23 03:58:33;;;;;;;7.95;2.88;;;12.50;99.90;;;-144.05;84.28;125687.94;5012905;28;20037;-78
2022/10/23 04:00:59;;;;;;;6.93;2.45;;;12.50;99.90;;;-144.05;84.53;125687.94;5012736;28;20034;-79
2022/10/23 04:03:24;;;;;;;10.05;2.78;;;12.50;99.90;;;-144.05;85.09;125687.94;5013264;28;20078;-77
2022/10/23 04:05:50;;;;;;;9.68;3.10;;;12.60;99.90;;;-144.05;84.67;125687.94;5013338;28;20026;-78
2022/10/23 04:08:17;;;;;;;6.90;2.85;;;12.60;99.90;;;-144.05;84.51;125687.94;5015350;28;20042;-77
2022/10/23 04:10:43;;;;;;;7.72;2.70;;;12.60;99.90;;;-144.05;84.74;125687.94;5016881;28;20033;-78
2022/10/23 04:13:09;;;;;;;3.70;2.70;;;12.70;99.90;;;-144.05;84.72;125687.94;5017313;28;20058;-81
2022/10/23 04:15:35;;;;;;;5.50;2.30;;;12.70;99.90;;;-144.05;84.84;125687.94;5026319;28;20026;-80
2022/10/23 04:18:01;;;;;;;3.22;2.30;;;12.80;99.90;;;-144.05;85.06;125687.94;5024797;28;20061;-80
2022/10/23 04:20:27;;;;;;;8.57;2.38;;;13.00;99.90;;;-144.05;84.57;125687.94;5023881;28;20097;-79
2022/10/23 04:22:53;;;;;;;11.48;2.42;;;13.10;99.90;;;-144.05;84.07;125687.94;5022813;28;20489;-81
2022/10/23 04:25:20;;;;;;;7.75;2.53;;;13.10;99.90;;;-144.05;83.89;125687.94;5022732;28;20041;-81
2022/10/23 04:27:47;;;;;;;4.47;2.10;;;13.20;99.90;;;-144.05;83.67;125687.94;5021153;28;20034;-79
2022/10/23 04:30:13;;;;;;;7.47;2.55;;;13.20;99.90;;;-144.05;83.30;125687.94;5021582;28;20160;-80
2022/10/23 04:32:39;;;;;;;10.60;2.50;;;13.20;99.90;;;-144.05;82.91;125687.94;5017308;28;20053;-77
2022/10/23 04:35:06;;;;;;;3.83;2.08;;;13.20;99.90;;;-144.05;83.16;125687.94;5016562;28;20485;-79
2022/10/23 04:37:32;;;;;;;6.88;2.10;;;13.20;99.90;;;-144.05;82.93;125687.94;5017316;28;20029;-79
2022/10/23 04:39:58;;;;;;;7.95;2.30;;;13.20;99.90;;;-144.05;82.75;125687.94;5017358;28;20036;-79
2022/10/23 04:42:24;;;;;;;4.78;1.98;;;13.20;99.90;;;-144.05;82.53;125687.94;5015891;28;20034;-77
2022/10/23 04:44:50;;;;;;;11.68;2.25;;;13.10;99.90;;;-144.05;82.94;125687.94;5017229;28;20393;-78
2022/10/23 04:47:15;;;;;;;9.45;2.38;;;13.00;99.90;;;-144.05;83.29;125687.94;5017346;28;20042;-78
2022/10/23 04:49:41;;;;;;;6.70;2.42;;;13.00;99.90;;;-144.05;83.36;125687.94;5016398;28;20073;-79
2022/10/23 04:52:07;;;;;;;9.18;2.83;;;13.00;99.90;;;-144.05;83.36;125687.94;5015112;28;20017;-77
2022/10/23 04:54:38;;;;;;;9.43;2.78;;;13.00;99.90;;;-144.05;83.33;125687.94;5016332;28;20109;-78
2022/10/23 04:57:04;;;;;;;5.78;2.30;;;13.00;99.90;;;-144.05;83.42;125687.94;5016052;28;20037;-78
2022/10/23 04:59:30;;;;;;;4.68;2.22;;;12.90;99.90;;;-144.05;83.35;125687.94;5016067;28;20088;-79
2022/10/23 05:01:56;;;;;;;6.32;2.25;;;12.90;99.90;;;-144.05;83.57;125687.94;5015709;28;20042;-78
2022/10/23 05:04:21;;;;;;;10.27;2.70;;;12.80;99.90;;;-144.05;83.52;125687.94;5015962;28;20037;-78
2022/10/23 05:06:47;;;;;;;9.35;2.92;;;12.80;99.90;;;-144.05;83.38;125687.94;5015317;28;20030;-78
2022/10/23 05:09:13;;;;;;;8.23;2.78;;;12.80;99.90;;;-144.05;83.54;125687.94;5015503;28;20061;-79
2022/10/23 05:11:39;;;;;;;6.90;2.17;;;12.70;99.90;;;-144.05;83.61;125687.94;5018191;28;20110;-75
2022/10/23 05:14:05;;;;;;;7.47;2.70;;;12.70;99.90;;;-144.05;83.44;125687.94;5016749;28;20121;-77
2022/10/23 05:16:58;;;;;;;7.47;2.72;;;12.60;99.90;;;-144.05;83.57;125687.94;4998265;28;20112;-78
2022/10/23 05:19:38;;;;;;;5.65;2.63;;;12.60;99.90;;;-144.05;83.63;125687.94;4997622;28;20100;-78
2022/10/23 05:22:05;;;;;;;7.28;3.50;;;12.60;99.90;;;-144.05;83.61;125687.94;5016138;28;20030;-78
2022/10/23 05:24:31;;;;;;;9.05;3.75;;;12.50;99.90;;;-144.05;83.39;125687.94;5014543;28;20083;-78
2022/10/23 05:26:57;;;;;;;12.05;3.35;;;12.40;99.90;;;-144.05;83.66;125687.94;5014595;28;20041;-75
2022/10/23 05:29:23;;;;;;;9.98;2.80;;;12.30;99.90;;;-144.05;84.50;125687.94;5016223;28;20465;-78
2022/10/23 05:31:59;;;;;;;9.93;2.88;;;12.30;99.90;;;-144.05;84.48;125687.94;5015772;28;20440;-77
2022/10/23 05:34:29;;;;;;;5.75;2.50;;;12.30;99.90;;;-144.05;84.59;125687.94;5015908;28;20022;-76
2022/10/23 05:36:55;;;;;;;7.72;2.65;;;12.40;99.90;;;-144.05;85.68;125687.94;5020161;28;20085;-81
2022/10/23 05:39:22;;;;;;;7.15;2.83;;;12.40;99.90;;;-144.05;85.53;125687.94;5023924;28;20022;-80
2022/10/23 05:41:48;;;;;;;8.88;3.08;;;12.50;99.90;;;-144.05;85.25;125687.94;5022193;28;20055;-80
2022/10/23 05:44:14;;;;;;;7.38;2.40;;;12.60;99.90;;;-144.05;85.31;125687.94;5021127;28;20026;-80
2022/10/23 05:46:43;;;;;;;9.40;2.55;;;12.70;99.90;;;-144.05;85.00;125687.94;5018584;28;20034;-76
2022/10/23 05:49:09;;;;;;;7.30;2.25;;;12.70;99.90;;;-144.05;84.76;125687.94;5019203;28;20029;-80
2022/10/23 05:51:38;;;;;;;6.47;2.22;;;12.80;99.90;;;-144.05;84.42;125687.94;5018246;28;20029;-80
2022/10/23 05:54:09;;;;;;;5.07;2.35;;;12.80;99.90;;;-144.05;83.70;125687.94;5016966;28;20452;-79
2022/10/23 05:56:37;;;;;;;5.03;2.60;;;12.80;99.90;;;-144.05;83.66;125687.94;5017473;28;20021;-81
2022/10/23 05:59:04;;;;;;;6.75;2.60;;;12.80;99.90;;;-144.05;83.29;125687.94;5017204;28;20034;-77
2022/10/23 06:01:30;;;;;;;7.72;3.47;;;12.70;99.90;;;-144.05;83.58;125687.94;5016425;28;20037;-78
2022/10/23 06:04:02;;;;;;;6.78;2.53;;;12.70;99.90;;;-144.05;83.44;125687.94;5016246;28;20037;-79
2022/10/23 06:06:28;;;;;;;6.80;2.83;;;12.70;99.90;;;-144.05;83.49;125687.94;4998288;28;20056;-77
2022/10/23 06:08:55;;;;;;;8.25;3.30;;;12.60;99.90;;;-144.05;83.44;125687.94;5015047;28;20493;-77
2022/10/23 06:11:21;;;;;;;7.35;2.83;;;12.60;99.90;;;-144.05;83.39;125687.94;5015340;28;20041;-77
2022/10/23 06:13:49;;;;;;;6.03;2.10;;;12.60;99.90;;;-144.05;83.56;125687.94;5015404;28;20034;-77
2022/10/23 06:16:21;;;;;;;4.75;2.28;;;12.60;99.90;;;-144.05;84.13;125687.94;5015454;28;20129;-79
2022/10/23 06:18:47;;;;;;;9.02;2.75;;;12.70;99.90;;;-144.05;84.13;125687.94;5015630;28;20038;-77
2022/10/23 06:21:15;;;;;;;5.90;2.08;;;12.70;99.90;;;-144.05;83.63;125687.94;5015851;28;20038;-78
2022/10/23 06:23:44;;;;;;;10.25;3.20;;;12.80;99.90;;;-144.05;83.98;125687.94;5014129;28;20492;-79
2022/10/23 06:26:14;;;;;;;9.80;3.00;;;12.80;99.90;;;-144.05;83.87;125687.94;5015060;28;20350;-80
2022/10/23 06:28:41;;;;;;;7.07;3.03;;;12.90;99.90;;;-144.05;83.56;125687.94;5016196;28;20038;-78
2022/10/23 06:31:11;;;;;;;7.28;2.28;;;13.00;99.90;;;-144.05;83.06;125687.94;5013617;28;20041;-80
2022/10/23 06:33:37;;;;;;;8.15;2.83;;;13.10;99.90;;;-144.05;82.79;125687.94;5017193;28;20029;-78
2022/10/23 06:36:07;;;;;;;3.72;2.25;;;13.10;99.90;;;-144.05;82.66;125687.94;5017506;28;20021;-79
2022/10/23 06:38:38;;;;;;;4.75;2.40;;;13.10;99.90;;;-144.05;82.35;125687.94;5016611;28;20026;-79
2022/10/23 06:41:12;;;;;;;8.43;2.10;;;13.20;99.90;;;-144.05;82.07;125687.94;5015991;28;20030;-78
2022/10/23 06:43:38;;;;;;;8.95;2.78;;;13.10;99.90;;;-144.05;82.14;125687.94;5015750;28;20062;-78
2022/10/23 06:46:05;;;;;;;6.38;2.30;;;13.20;99.90;;;-144.05;82.06;125687.94;5017526;28;20052;-77
2022/10/23 06:48:31;;;;;;;7.43;2.90;;;13.20;99.90;;;-144.05;81.81;125687.94;5014041;28;20132;-79
2022/10/23 06:51:02;;;;;;;6.25;3.05;;;13.30;99.90;;;-144.05;81.72;125687.94;5015869;28;20086;-76
2022/10/23 06:53:28;;;;;;;4.57;2.55;;;13.30;99.90;;;-144.05;81.80;125687.94;5014641;28;20092;-78
2022/10/23 06:56:03;;;;;;;7.68;2.35;;;13.30;99.90;;;-144.05;81.34;125687.94;5015305;28;20481;-78
2022/10/23 06:58:29;;;;;;;7.47;2.38;;;13.40;99.90;;;-144.05;80.93;125687.94;5017233;28;20060;-78
2022/10/23 07:01:00;;;;;;;6.57;2.35;;;13.50;99.90;;;-144.05;80.96;125687.94;5020411;28;20026;-80
2022/10/23 07:03:27;;;;;;;7.40;2.30;;;13.60;99.90;;;-144.05;80.35;125687.94;5002841;28;20037;-80
2022/10/23 07:05:53;;;;;;;5.57;2.10;;;13.70;99.90;;;-144.05;80.13;125687.94;5017820;28;20034;-80
2022/10/23 07:08:19;;;;;;;4.10;2.08;;;13.70;99.90;;;-144.05;79.83;125687.94;5013595;28;20117;-79
2022/10/23 07:10:44;;;;;;;7.93;2.15;;;13.80;99.90;;;-144.05;79.38;125687.94;5014630;28;20391;-79
2022/10/23 07:13:11;;;;;;;7.25;1.90;;;13.90;99.90;;;-144.05;78.81;125687.94;5015827;28;20134;-78
2022/10/23 07:15:39;;;;;;;8.10;1.83;;;14.00;99.90;;;-144.05;78.41;125687.94;5015893;28;20034;-79
2022/10/23 07:18:05;;;;;;;2.85;1.80;;;14.00;99.90;;;-144.05;78.63;125687.94;5015247;28;20076;-76
2022/10/23 07:20:31;;;;;;;7.43;2.05;;;14.10;99.90;;;-144.05;78.35;125687.94;4997360;28;20033;-80
2022/10/23 07:22:58;;;;;;;7.80;1.63;;;14.10;99.90;;;-144.05;78.09;125687.94;5015872;28;20042;-77
2022/10/23 07:25:26;;;;;;;4.82;1.88;;;14.10;99.90;;;-144.05;78.18;125687.94;5024875;28;20393;-80
2022/10/23 07:27:54;;;;;;;2.10;1.45;;;14.10;99.90;;;-144.05;77.95;125687.94;5021796;28;20040;-78
2022/10/23 07:30:21;;;;;;;3.90;1.58;;;14.10;99.90;;;-144.05;78.05;125687.94;5019609;28;20025;-79
2022/10/23 07:32:47;;;;;;;1.65;1.38;;;14.10;99.90;;;-144.05;78.19;125687.94;5019531;28;20106;-78
2022/10/23 07:35:13;;;;;;;4.28;1.75;;;14.10;99.90;;;-144.05;78.09;125687.94;5022237;28;20094;-79
2022/10/23 07:37:39;;;;;;;5.45;1.90;;;14.10;99.90;;;-144.05;78.30;125687.94;5019358;28;20037;-77
2022/10/23 07:40:07;;;;;;;3.58;1.70;;;14.10;99.90;;;-144.05;78.80;125687.94;5035294;28;20029;-78
2022/10/23 07:42:33;;;;;;;4.38;2.05;;;14.10;99.90;;;-144.05;79.13;125687.94;5035944;28;20038;-78
2022/10/23 07:44:59;;;;;;;6.40;1.80;;;14.10;99.90;;;-144.05;78.85;125687.94;5036410;28;20021;-78
2022/10/23 07:47:32;;;;;;;7.72;2.10;;;14.10;99.90;;;-144.05;78.34;125687.94;5033424;23;20053;-87
2022/10/23 07:49:58;;;;;;;5.43;2.20;;;14.10;99.90;;;-144.05;78.15;125687.94;4996428;28;20501;-88
2022/10/23 07:52:24;;;;;;;3.95;2.28;;;14.20;99.90;;;-144.05;77.91;125687.94;4996429;28;20101;-88
2022/10/23 07:54:51;;;;;;;3.38;1.92;;;14.20;99.90;;;-144.05;77.69;125687.94;5012722;28;20033;-86
2022/10/23 07:57:17;;;;;;;4.22;1.60;;;14.30;99.90;;;-144.05;77.38;125687.94;4997436;28;20302;-86
2022/10/23 07:59:43;;;;;;;5.07;1.95;;;14.30;99.90;;;-144.05;77.37;125687.94;5014331;28;20117;-86
2022/10/23 08:02:15;;;;;;;2.78;1.58;;;14.40;99.90;;;-144.05;77.16;125687.94;5014431;28;20057;-85
2022/10/23 08:04:41;;;;;;;2.83;1.70;;;14.50;99.90;;;-144.05;77.21;125687.94;5011919;28;20025;-86
2022/10/23 08:07:07;;;;;;;3.03;1.75;;;14.50;99.90;;;-144.05;77.08;125687.94;4995704;28;20034;-87
2022/10/23 08:09:34;;;;;;;2.42;1.58;;;14.60;99.90;;;-144.05;76.67;125687.94;5012425;28;20175;-86
2022/10/23 08:12:00;;;;;;;8.40;2.10;;;14.70;99.90;;;-144.05;75.74;125687.94;5020736;28;20110;-80
2022/10/23 08:14:49;;;;;;;6.10;1.67;;;14.70;99.90;;;-144.05;75.00;125687.94;5035878;28;20036;-84
2022/10/23 08:17:15;;;;;;;5.00;2.00;;;14.90;99.90;;;-144.05;74.58;125687.94;5085502;23;20050;-81
2022/10/23 08:19:45;;;;;;;5.57;2.20;;;15.00;99.90;;;-144.05;73.89;125687.94;5021818;28;20124;-79
2022/10/23 08:22:12;;;;;;;2.42;1.50;;;15.20;99.90;;;-144.05;73.79;125687.94;5015939;28;20432;-80
2022/10/23 08:24:38;;;;;;;7.20;1.73;;;15.30;99.90;;;-144.05;73.35;125687.94;4996809;28;20033;-79
2022/10/23 08:27:04;;;;;;;8.07;1.55;;;15.50;99.90;;;-144.05;72.41;125687.94;5015385;28;20120;-82
2022/10/23 08:29:29;;;;;;;6.45;1.55;;;15.60;99.90;;;-144.05;71.97;125687.94;5014101;28;20022;-81
2022/10/23 08:31:56;;;;;;;2.85;1.35;;;15.70;99.90;;;-144.05;71.38;125687.94;5027038;23;20389;-83
2022/10/23 08:34:23;;;;;;;3.33;1.75;;;15.80;99.90;;;-144.05;70.77;125687.94;5012880;28;20373;-83
2022/10/23 08:36:49;;;;;;;1.88;1.38;;;16.00;99.90;;;-144.05;70.55;125687.94;4999049;28;20449;-86
2022/10/23 08:39:15;;;;;;;4.85;1.92;;;16.20;99.90;;;-144.05;69.03;125687.94;5008288;28;20025;-85
2022/10/23 08:41:50;;;;;;;6.60;1.83;;;16.30;99.90;;;-144.05;67.86;125687.94;5001766;28;20022;-84
2022/10/23 08:44:58;;;;;;;4.18;1.60;;;16.50;99.90;;;-144.05;67.49;125687.94;5003093;28;20026;-85
2022/10/23 08:47:39;;;;;;;8.57;1.83;;;16.60;99.90;;;-144.05;66.82;125687.94;5015883;28;20405;-83
2022/10/23 08:50:27;;;;;;;4.90;1.63;;;16.90;99.90;;;-144.05;64.88;125687.94;5015371;28;20030;-85
2022/10/23 08:53:19;;;;;;;9.23;1.70;;;17.20;99.90;;;-144.05;63.51;125687.94;5017627;28;20044;-83
2022/10/23 08:56:05;;;;;;;8.70;1.90;;;17.50;99.90;;;-144.05;62.93;125687.94;5009164;28;20026;-83
2022/10/23 08:59:00;;;;;;;5.90;1.67;;;17.70;99.90;;;-144.05;62.28;125687.94;5020044;28;20029;-82
2022/10/23 09:01:54;;;;;;;3.55;1.70;;;18.00;99.90;;;-144.05;59.92;125687.94;5017995;28;20038;-85
2022/10/23 09:04:20;;;;;;;5.63;1.70;;;18.30;99.90;;;-144.05;59.31;125687.94;5020571;28;20040;-84
2022/10/23 09:07:03;;;;;;;5.97;1.60;;;18.50;99.90;;;-144.05;58.52;125687.94;5019089;28;20033;-85
2022/10/23 09:10:05;;;;;;;4.70;1.70;;;18.50;99.90;;;-144.05;58.60;125687.94;5019132;28;20729;-84
2022/10/23 09:12:31;;;;;;;3.63;1.30;;;18.70;99.90;;;-144.05;56.91;125687.94;5001377;28;20033;-84
2022/10/23 09:15:33;;;;;;;6.25;1.38;;;18.80;99.90;;;-144.05;56.66;125687.94;5017836;28;20040;-81
2022/10/23 09:18:23;;;;;;;4.85;1.38;;;18.60;99.90;;;-144.05;57.24;125687.94;5016708;28;20041;-83
2022/10/23 09:20:51;;;;;;;5.72;1.30;;;18.60;99.90;;;-144.05;56.72;125687.94;5000719;28;20030;-86
2022/10/23 09:23:24;;;;;;;6.35;1.65;;;18.60;99.90;;;-144.05;56.92;125687.94;5017578;28;20521;-85
2022/10/23 09:25:55;;;;;;;4.80;1.40;;;18.50;99.90;;;-144.05;56.87;125687.94;5018303;28;20481;-84
2022/10/23 09:28:30;;;;;;;8.27;1.38;;;18.50;99.90;;;-144.05;56.84;125687.94;5018662;28;20093;-86
2022/10/23 09:31:10;;;;;;;2.53;1.10;;;18.60;99.90;;;-144.05;57.18;125687.94;5017453;28;20041;-85
2022/10/23 09:33:38;;;;;;;5.32;1.65;;;18.70;99.90;;;-144.05;57.00;125687.94;5000201;28;20273;-83
2022/10/23 09:36:24;;;;;;;5.43;1.20;;;18.90;99.90;;;-144.05;56.67;125687.94;5014610;28;20062;-86
2022/10/23 09:38:58;;;;;;;4.55;1.17;;;18.90;99.90;;;-144.05;57.06;125687.94;5017245;28;20045;-83
2022/10/23 09:41:39;;;;;;;3.58;1.10;;;18.90;99.90;;;-144.05;57.13;125687.94;5001120;28;20563;-85
2022/10/23 09:44:22;;;;;;;5.15;1.15;;;18.70;99.90;;;-144.05;56.30;125687.94;5000397;28;20069;-85
2022/10/23 09:47:17;;;;;;;3.00;1.15;;;18.70;99.90;;;-144.05;56.54;125687.94;5014413;28;20527;-85
2022/10/23 09:49:53;;;;;;;5.72;1.63;;;18.70;99.90;;;-144.05;57.34;125687.94;5018501;28;20061;-84
2022/10/23 09:52:36;;;;;;;3.05;1.25;;;18.60;99.90;;;-144.05;56.69;125687.94;5020961;28;20053;-84
2022/10/23 09:55:25;;;;;;;7.65;1.33;;;18.60;99.90;;;-144.05;57.08;125687.94;5018597;28;20029;-84
2022/10/23 09:57:53;;;;;;;6.63;1.10;;;18.60;99.90;;;-144.05;56.85;125687.94;5017778;28;20022;-84
2022/10/23 10:00:26;;;;;;;3.15;0.93;;;18.60;99.90;;;-144.05;56.71;125687.94;5000198;28;20050;-83
2022/10/23 10:03:05;;;;;;;3.05;1.30;;;18.60;99.90;;;-144.05;57.12;125687.94;5019330;28;20053;-85
2022/10/23 10:05:37;;;;;;;4.13;1.05;;;18.60;99.90;;;-144.05;56.81;125687.94;5016765;28;20568;-81
2022/10/23 10:08:20;;;;;;;2.47;1.08;;;18.60;99.90;;;-144.05;56.53;125687.94;5017665;28;20057;-86
2022/10/23 10:11:10;;;;;;;3.00;1.10;;;18.70;99.90;;;-144.05;56.52;125687.94;5019243;28;20022;-86
2022/10/23 10:14:02;;;;;;;4.55;0.93;;;18.80;99.90;;;-144.05;55.36;125687.94;5016428;28;20444;-84
2022/10/23 10:16:50;;;;;;;3.08;1.00;;;18.80;99.90;;;-144.05;55.50;125687.94;5018675;28;20026;-86
2022/10/23 10:20:01;;;;;;;6.35;1.67;;;18.80;99.90;;;-144.05;55.84;125687.94;5021244;28;20040;-83
2022/10/23 10:23:01;;;;;;;3.78;0.95;;;18.80;99.90;;;-144.05;55.50;125687.94;4999785;28;20413;-82